createdAt,value
2018-04-19T00:06:25.628Z,16.50
2018-04-19T00:08:53.911Z,16.30
2018-04-19T00:11:22.183Z,16.30
2018-04-19T00:13:49.676Z,16.30
2018-04-19T00:16:17.148Z,16.20
2018-04-19T00:18:44.907Z,16.10
2018-04-19T00:21:12.379Z,16.00
2018-04-19T00:23:39.875Z,16.00
2018-04-19T00:26:08.403Z,16.00
2018-04-19T00:28:36.167Z,16.00
2018-04-19T00:31:03.688Z,16.20
2018-04-19T00:33:32.207Z,16.40
2018-04-19T00:35:59.992Z,16.30
2018-04-19T00:38:28.553Z,16.40
2018-04-19T00:40:56.484Z,16.40
2018-04-19T00:43:24.287Z,16.40
2018-04-19T00:45:51.764Z,16.50
2018-04-19T00:48:19.255Z,16.40
2018-04-19T00:50:46.728Z,16.40
2018-04-19T00:53:14.985Z,16.40
2018-04-19T00:55:42.804Z,16.40
2018-04-19T00:58:10.279Z,16.40
2018-04-19T01:00:37.767Z,16.40
2018-04-19T01:03:05.240Z,16.40
2018-04-19T01:05:33.761Z,16.30
2018-04-19T01:08:01.926Z,16.20
2018-04-19T01:10:30.003Z,16.20
2018-04-19T01:12:57.475Z,16.20
2018-04-19T01:15:24.967Z,16.10
2018-04-19T01:17:53.243Z,16.00
2018-04-19T01:20:21.503Z,15.90
2018-04-19T01:22:49.085Z,15.90
2018-04-19T01:25:17.347Z,16.00
2018-04-19T01:27:44.820Z,16.00
2018-04-19T01:30:13.201Z,16.10
2018-04-19T01:32:40.701Z,16.10
2018-04-19T01:35:08.457Z,16.10
2018-04-19T01:37:35.959Z,16.10
2018-04-19T01:40:03.461Z,16.00
2018-04-19T01:42:31.747Z,16.00
2018-04-19T01:44:59.508Z,15.90
2018-04-19T01:47:27.004Z,15.80
2018-04-19T01:49:54.733Z,15.70
2018-04-19T01:52:22.244Z,15.60
2018-04-19T01:54:50.483Z,15.40
2018-04-19T01:57:17.996Z,15.40
2018-04-19T01:59:45.472Z,15.30
2018-04-19T02:02:12.996Z,15.10
2018-04-19T02:04:41.235Z,14.80
2018-04-19T02:07:08.738Z,14.70
2018-04-19T02:09:36.997Z,14.30
2018-04-19T02:12:04.811Z,14.20
2018-04-19T02:14:32.572Z,14.00
2018-04-19T02:17:00.090Z,13.70
2018-04-19T02:19:28.364Z,13.20
2018-04-19T02:21:56.619Z,13.00
2018-04-19T02:24:24.092Z,13.00
2018-04-19T02:26:52.784Z,12.80
2018-04-19T02:29:21.307Z,12.70
2018-04-19T02:31:49.071Z,12.60
2018-04-19T02:34:16.837Z,12.50
2018-04-19T02:36:44.332Z,12.80
2018-04-19T02:39:12.572Z,12.60
2018-04-19T02:41:40.085Z,12.60
2018-04-19T02:44:08.773Z,12.40
2018-04-19T02:46:37.388Z,12.00
2018-04-19T02:49:04.880Z,12.00
2018-04-19T02:51:33.132Z,11.80
2018-04-19T02:54:00.628Z,11.80
2018-04-19T02:56:28.112Z,11.80
2018-04-19T02:58:56.624Z,11.70
2018-04-19T03:01:24.096Z,11.70
2018-04-19T03:03:51.632Z,11.60
2018-04-19T03:06:19.403Z,11.60
2018-04-19T03:08:47.120Z,11.50
2018-04-19T03:11:15.368Z,11.50
2018-04-19T03:13:42.865Z,11.40
2018-04-19T03:16:11.102Z,11.40
2018-04-19T03:18:38.591Z,11.30
2018-04-19T03:21:06.827Z,11.30
2018-04-19T03:23:34.323Z,11.30
2018-04-19T03:26:02.579Z,11.20
2018-04-19T03:28:30.824Z,11.30
2018-04-19T03:30:58.328Z,11.30
2018-04-19T03:33:26.792Z,11.30
2018-04-19T03:35:54.364Z,11.30
2018-04-19T03:38:21.844Z,11.40
2018-04-19T03:40:49.387Z,11.40
2018-04-19T03:43:16.825Z,11.30
2018-04-19T03:45:45.824Z,11.30
2018-04-19T03:48:14.804Z,11.30
2018-04-19T03:50:42.631Z,11.30
2018-04-19T03:53:10.332Z,11.20
2018-04-19T03:55:37.911Z,11.10
2018-04-19T03:58:06.152Z,10.90
2018-04-19T04:00:33.652Z,10.90
2018-04-19T04:03:02.172Z,10.90
2018-04-19T04:05:29.663Z,10.80
2018-04-19T04:07:58.928Z,10.70
2018-04-19T04:10:26.691Z,10.80
2018-04-19T04:12:54.183Z,10.70
2018-04-19T04:15:21.759Z,10.70
2018-04-19T04:18:02.271Z,10.70
2018-04-19T04:20:41.660Z,10.70
2018-04-19T04:23:44.592Z,10.90
2018-04-19T04:26:12.108Z,10.90
2018-04-19T04:28:40.363Z,11.00
2018-04-19T04:31:07.899Z,10.90
2018-04-19T04:33:36.105Z,11.00
2018-04-19T04:36:03.589Z,11.00
2018-04-19T04:38:31.848Z,11.20
2018-04-19T04:41:00.093Z,11.30
2018-04-19T04:43:27.595Z,11.20
2018-04-19T04:45:55.855Z,11.40
2018-04-19T04:48:24.111Z,11.50
2018-04-19T04:50:51.597Z,11.50
2018-04-19T04:53:19.852Z,11.60
2018-04-19T04:55:48.841Z,11.70
2018-04-19T04:58:16.415Z,11.70
2018-04-19T05:00:44.655Z,12.00
2018-04-19T05:03:12.147Z,12.00
2018-04-19T05:05:40.425Z,12.20
2018-04-19T05:08:07.902Z,12.20
2018-04-19T05:10:35.395Z,13.20
2018-04-19T05:13:02.868Z,15.20
2018-04-19T05:15:30.606Z,17.10
2018-04-19T05:17:58.083Z,18.50
2018-04-19T05:20:25.694Z,19.80
2018-04-19T05:22:53.931Z,21.80
2018-04-19T05:25:21.518Z,21.80
2018-04-19T05:27:49.761Z,22.90
2018-04-19T05:30:17.239Z,22.80
2018-04-19T05:32:44.728Z,23.70
2018-04-19T05:35:12.203Z,24.10
2018-04-19T05:37:39.968Z,23.30
2018-04-19T05:40:07.663Z,24.00
2018-04-19T05:42:35.399Z,23.80
2018-04-19T05:45:02.876Z,23.90
2018-04-19T05:47:30.583Z,24.80
2018-04-19T05:49:58.823Z,27.20
2018-04-19T05:52:26.323Z,27.10
2018-04-19T05:54:53.795Z,27.90
2018-04-19T05:57:21.267Z,28.10
2018-04-19T05:59:48.772Z,27.30
2018-04-19T06:02:17.019Z,25.10
2018-04-19T06:04:44.512Z,25.10
2018-04-19T06:07:12.771Z,24.80
2018-04-19T06:09:40.267Z,24.80
2018-04-19T06:12:07.739Z,24.50
2018-04-19T06:14:35.504Z,25.40
2018-04-19T06:17:02.979Z,25.00
2018-04-19T06:19:30.472Z,25.80
2018-04-19T06:21:58.723Z,26.30
2018-04-19T06:24:26.215Z,26.30
2018-04-19T06:26:54.731Z,26.00
2018-04-19T06:29:22.216Z,25.90
2018-04-19T06:31:49.703Z,25.10
2018-04-19T06:34:17.947Z,27.40
2018-04-19T06:36:45.436Z,27.40
2018-04-19T06:39:13.678Z,28.00
2018-04-19T06:41:41.186Z,28.00
2018-04-19T06:44:08.663Z,29.00
2018-04-19T06:46:36.156Z,28.70
2018-04-19T06:49:03.638Z,27.00
2018-04-19T06:51:32.164Z,28.10
2018-04-19T06:53:59.656Z,28.00
2018-04-19T06:56:27.384Z,28.10
2018-04-19T06:58:54.876Z,28.60
2018-04-19T07:01:22.603Z,28.50
2018-04-19T07:03:50.315Z,29.40
2018-04-19T07:06:17.787Z,27.70
2018-04-19T07:08:46.028Z,26.80
2018-04-19T07:11:13.615Z,26.70
2018-04-19T07:13:41.855Z,25.00
2018-04-19T07:16:09.599Z,24.90
2018-04-19T07:18:37.073Z,26.10
2018-04-19T07:21:04.568Z,26.80
2018-04-19T07:23:32.836Z,25.60
2018-04-19T07:26:00.324Z,25.60
2018-04-19T07:28:27.804Z,27.50
2018-04-19T07:30:55.287Z,25.10
2018-04-19T07:33:22.776Z,26.20
2018-04-19T07:35:51.052Z,26.10
2018-04-19T07:38:19.311Z,26.10
2018-04-19T07:40:46.791Z,26.10
2018-04-19T07:43:15.072Z,25.10
2018-04-19T07:45:42.616Z,25.10
2018-04-19T07:48:11.108Z,25.80
2018-04-19T07:50:38.906Z,25.80
2018-04-19T07:53:06.400Z,25.90
2018-04-19T07:55:34.133Z,26.90
2018-04-19T07:58:01.734Z,25.60
2018-04-19T08:00:29.891Z,24.80
2018-04-19T08:02:57.360Z,24.80
2018-04-19T08:05:24.883Z,24.20
2018-04-19T08:07:52.335Z,25.30
2018-04-19T08:10:19.849Z,26.00
2018-04-19T08:12:48.105Z,25.60
2018-04-19T08:15:15.603Z,25.60
2018-04-19T08:17:43.079Z,25.70
2018-04-19T08:20:10.603Z,26.10
2018-04-19T08:22:38.844Z,25.30
2018-04-19T08:25:06.432Z,25.20
2018-04-19T08:27:34.671Z,26.00
2018-04-19T08:30:02.157Z,26.00
2018-04-19T08:32:30.419Z,26.60
2018-04-19T08:34:57.948Z,26.60
2018-04-19T08:37:25.406Z,27.40
2018-04-19T08:39:52.886Z,27.10
2018-04-19T08:42:20.379Z,26.50
2018-04-19T08:44:48.623Z,26.40
2018-04-19T08:47:16.141Z,26.30
2018-04-19T08:49:43.656Z,26.00
2018-04-19T08:52:11.923Z,26.50
2018-04-19T08:54:40.181Z,26.10
2018-04-19T08:57:07.655Z,26.10
2018-04-19T08:59:35.151Z,26.20
2018-04-19T09:02:02.683Z,25.90
2018-04-19T09:04:30.956Z,25.90
2018-04-19T09:06:59.200Z,25.80
2018-04-19T09:09:26.700Z,25.80
2018-04-19T09:11:54.952Z,25.70
2018-04-19T09:14:22.447Z,25.70
2018-04-19T09:16:49.928Z,27.00
2018-04-19T09:19:17.463Z,27.00
2018-04-19T09:21:45.248Z,26.30
2018-04-19T09:24:12.801Z,26.60
2018-04-19T09:26:40.569Z,26.40
2018-04-19T09:29:08.043Z,26.60
2018-04-19T09:31:35.535Z,26.80
2018-04-19T09:34:04.066Z,26.30
2018-04-19T09:36:31.827Z,26.30
2018-04-19T09:38:59.316Z,26.20
2018-04-19T09:41:26.801Z,26.50
2018-04-19T09:43:55.064Z,27.00
2018-04-19T09:46:22.540Z,27.00
2018-04-19T09:48:50.799Z,26.70
2018-04-19T09:51:22.932Z,26.70
2018-04-19T09:53:50.489Z,26.70
2018-04-19T09:56:18.688Z,27.40
2018-04-19T10:12:12.548Z,27.40
2018-04-19T10:14:41.543Z,27.40
2018-04-19T10:17:10.800Z,28.10
2018-04-19T10:19:38.299Z,28.20
2018-04-19T10:22:05.779Z,27.80
2018-04-19T10:24:34.019Z,28.20
2018-04-19T10:27:01.509Z,28.20
2018-04-19T10:29:29.752Z,28.20
2018-04-19T10:31:57.343Z,28.20
2018-04-19T10:34:25.586Z,28.90
2018-04-19T10:36:53.424Z,28.90
2018-04-19T10:39:20.909Z,28.60
2018-04-19T10:41:48.410Z,28.60
2018-04-19T10:44:16.650Z,29.20
2018-04-19T10:46:44.127Z,29.20
2018-04-19T10:49:12.403Z,29.00
2018-04-19T10:51:40.675Z,28.60
2018-04-19T10:54:09.211Z,28.30
2018-04-19T10:56:37.428Z,28.60
2018-04-19T10:59:05.713Z,28.30
2018-04-19T11:01:33.955Z,28.60
2018-04-19T11:04:01.456Z,28.60
2018-04-19T11:06:29.692Z,28.60
2018-04-19T11:08:57.176Z,28.60
2018-04-19T11:11:25.701Z,28.40
2018-04-19T11:13:53.180Z,28.40
2018-04-19T11:16:20.775Z,28.00
2018-04-19T11:18:49.016Z,28.40
2018-04-19T11:21:16.507Z,28.40
2018-04-19T11:23:44.747Z,28.10
2018-04-19T11:26:12.216Z,28.00
2018-04-19T11:28:39.707Z,28.10
2018-04-19T11:31:07.948Z,29.00
2018-04-19T11:33:35.444Z,29.00
2018-04-19T11:36:02.924Z,28.90
2018-04-19T11:38:30.423Z,28.40
2018-04-19T11:40:58.148Z,28.50
2018-04-19T11:43:25.640Z,28.20
2018-04-19T11:45:53.224Z,28.30
2018-04-19T11:48:21.464Z,28.30
2018-04-19T11:50:49.064Z,28.30
2018-04-19T11:53:17.304Z,28.80
2018-04-19T11:55:44.804Z,28.80
2018-04-19T11:58:12.281Z,28.20
2018-04-19T12:00:39.771Z,28.50
2018-04-19T12:03:07.243Z,28.30
2018-04-19T12:05:34.739Z,28.60
2018-04-19T12:08:02.208Z,29.30
2018-04-19T12:10:29.984Z,29.30
2018-04-19T12:12:57.483Z,29.70
2018-04-19T12:15:25.059Z,29.40
2018-04-19T12:17:53.315Z,29.60
2018-04-19T12:20:20.788Z,29.60
2018-04-19T12:22:49.316Z,29.60
2018-04-19T12:25:16.789Z,29.60
2018-04-19T12:27:44.280Z,29.30
2018-04-19T12:30:11.843Z,29.80
2018-04-19T12:32:40.103Z,28.90
2018-04-19T12:35:07.576Z,28.90
2018-04-19T12:37:35.896Z,29.30
2018-04-19T12:40:03.328Z,29.30
2018-04-19T12:42:30.804Z,29.30
2018-04-19T12:44:58.512Z,29.10
2018-04-19T12:47:26.092Z,29.60
2018-04-19T12:49:54.351Z,29.50
2018-04-19T12:52:22.044Z,29.50
2018-04-19T12:54:50.410Z,28.60
2018-04-19T12:57:18.649Z,28.60
2018-04-19T12:59:46.144Z,28.60
2018-04-19T13:02:14.416Z,29.00
2018-04-19T13:04:42.671Z,29.30
2018-04-19T13:07:10.405Z,29.30
2018-04-19T13:09:38.159Z,29.10
2018-04-19T13:12:05.640Z,29.30
2018-04-19T13:14:33.356Z,28.70
2018-04-19T13:17:01.656Z,28.30
2018-04-19T13:19:29.420Z,28.20
2018-04-19T13:21:57.221Z,28.00
2018-04-19T13:24:24.696Z,27.80
2018-04-19T13:26:52.936Z,27.50
2018-04-19T13:29:20.408Z,27.50
2018-04-19T13:31:48.136Z,27.50
2018-04-19T13:34:15.612Z,27.40
2018-04-19T13:36:43.103Z,27.30
2018-04-19T13:39:11.363Z,27.20
2018-04-19T13:41:38.837Z,27.20
2018-04-19T13:44:07.103Z,27.20
2018-04-19T13:46:34.579Z,27.20
2018-04-19T13:49:02.844Z,27.00
2018-04-19T13:51:31.103Z,27.20
2018-04-19T13:53:58.581Z,27.10
2018-04-19T13:56:26.836Z,26.80
2018-04-19T13:58:54.564Z,26.80
2018-04-19T14:01:22.060Z,26.70
2018-04-19T14:03:49.539Z,26.90
2018-04-19T14:06:17.799Z,26.60
2018-04-19T14:08:45.272Z,26.60
2018-04-19T14:11:13.544Z,26.60
2018-04-19T14:13:41.815Z,26.30
2018-04-19T14:16:10.076Z,26.60
2018-04-19T14:18:37.552Z,26.60
2018-04-19T14:21:06.072Z,26.80
2018-04-19T14:23:33.569Z,26.70
2018-04-19T14:26:02.547Z,26.80
2018-04-19T14:28:30.042Z,26.70
2018-04-19T14:30:58.279Z,26.70
2018-04-19T14:33:25.768Z,26.80
2018-04-19T14:35:53.327Z,26.90
2018-04-19T14:38:21.642Z,26.70
2018-04-19T14:40:49.876Z,26.60
2018-04-19T14:43:18.120Z,26.70
2018-04-19T14:45:45.617Z,26.70
2018-04-19T14:48:13.887Z,26.70
2018-04-19T14:50:42.152Z,26.60
2018-04-19T14:53:09.724Z,26.60
2018-04-19T14:55:38.247Z,26.70
2018-04-19T14:58:05.724Z,26.60
2018-04-19T15:00:33.474Z,26.50
2018-04-19T15:03:00.963Z,26.60
2018-04-19T15:05:28.435Z,26.70
2018-04-19T15:07:55.972Z,26.60
2018-04-19T15:10:23.448Z,26.70
2018-04-19T15:12:51.013Z,26.70
2018-04-19T15:15:19.252Z,26.50
2018-04-19T15:17:46.997Z,26.50
2018-04-19T15:20:14.475Z,26.60
2018-04-19T15:22:41.952Z,26.60
2018-04-19T15:25:09.447Z,26.50
2018-04-19T15:27:37.023Z,26.60
2018-04-19T15:30:04.512Z,26.70
2018-04-19T15:32:31.999Z,26.60
2018-04-19T15:35:00.283Z,26.40
2018-04-19T15:37:28.526Z,26.40
2018-04-19T15:39:56.011Z,26.40
2018-04-19T15:42:24.280Z,26.40
2018-04-19T15:44:52.616Z,26.40
2018-04-19T15:47:20.107Z,26.40
2018-04-19T15:49:47.584Z,26.40
2018-04-19T15:52:15.844Z,26.30
2018-04-19T15:54:44.092Z,26.30
2018-04-19T15:57:11.603Z,26.30
2018-04-19T15:59:39.392Z,26.20
2018-04-19T16:02:06.953Z,26.30
2018-04-19T16:04:34.617Z,26.20
2018-04-19T16:07:02.092Z,26.20
2018-04-19T16:09:29.931Z,26.20
2018-04-19T16:11:57.473Z,26.10
2018-04-19T16:14:25.242Z,26.10
2018-04-19T16:16:52.768Z,26.10
2018-04-19T16:19:20.331Z,26.00
2018-04-19T16:21:48.591Z,26.00
2018-04-19T16:24:16.063Z,26.00
2018-04-19T16:26:44.335Z,25.80
2018-04-19T16:29:11.834Z,25.80
2018-04-19T16:31:39.352Z,25.80
2018-04-19T16:34:07.628Z,25.70
2018-04-19T16:36:35.871Z,25.70
2018-04-19T16:39:03.712Z,25.60
2018-04-19T16:41:31.476Z,25.60
2018-04-19T16:43:59.243Z,25.50
2018-04-19T16:46:26.736Z,25.40
2018-04-19T16:48:54.216Z,25.30
2018-04-19T16:51:22.459Z,25.30
2018-04-19T16:53:49.948Z,25.30
2018-04-19T16:56:18.188Z,25.20
2018-04-19T16:58:45.900Z,25.10
2018-04-19T17:01:13.376Z,25.20
2018-04-19T17:03:41.623Z,25.10
2018-04-19T17:06:09.176Z,25.00
2018-04-19T17:08:36.604Z,25.00
2018-04-19T17:11:04.105Z,25.00
2018-04-19T17:13:31.579Z,24.90
2018-04-19T17:15:59.348Z,24.80
2018-04-19T17:18:26.918Z,24.60
2018-04-19T17:20:54.416Z,24.60
2018-04-19T17:23:22.235Z,24.50
2018-04-19T17:25:49.932Z,24.40
2018-04-19T17:28:17.408Z,24.40
2018-04-19T17:30:45.661Z,24.30
2018-04-19T17:33:13.132Z,24.20
2018-04-19T17:35:40.627Z,24.20
2018-04-19T17:38:08.389Z,24.10
2018-04-19T17:40:35.875Z,24.10
2018-04-19T17:43:03.363Z,24.00
2018-04-19T17:45:30.835Z,23.90
2018-04-19T17:47:59.108Z,23.70
2018-04-19T17:50:31.726Z,23.60
2018-04-19T17:53:06.780Z,23.60
2018-04-19T17:55:45.486Z,23.50
2018-04-19T17:58:15.760Z,23.30
2018-04-19T18:00:44.010Z,22.90
2018-04-19T18:03:11.600Z,22.90
2018-04-19T18:05:39.856Z,22.60
2018-04-19T18:08:07.657Z,22.60
2018-04-19T18:10:34.934Z,22.50
2018-04-19T18:13:02.487Z,22.30
2018-04-19T18:15:29.959Z,22.20
2018-04-19T18:17:57.501Z,22.10
2018-04-19T18:20:24.978Z,22.00
2018-04-19T18:22:52.778Z,21.90
2018-04-19T18:25:20.216Z,21.70
2018-04-19T18:27:47.739Z,21.60
2018-04-19T18:30:15.956Z,21.30
2018-04-19T18:32:43.488Z,21.20
2018-04-19T18:35:11.055Z,21.10
2018-04-19T18:40:21.154Z,20.60
2018-04-19T18:42:48.718Z,20.60
2018-04-19T18:45:16.960Z,20.30
2018-04-19T18:47:44.452Z,20.30
2018-04-19T18:50:12.696Z,20.10
2018-04-19T18:52:40.432Z,20.10
2018-04-19T18:55:07.953Z,20.00
2018-04-19T18:57:36.192Z,19.70
2018-04-19T19:00:03.700Z,19.70
2018-04-19T19:02:31.199Z,19.50
2018-04-19T19:04:58.944Z,19.50
2018-04-19T19:07:26.465Z,19.50
2018-04-19T19:09:54.725Z,19.40
2018-04-19T19:12:23.264Z,19.30
2018-04-19T19:14:51.024Z,19.30
2018-04-19T19:17:30.620Z,19.30
2018-04-19T19:20:10.576Z,19.10
2018-04-19T19:22:38.095Z,19.10
2018-04-19T19:25:05.838Z,19.00
2018-04-19T19:27:33.603Z,18.90
2018-04-19T19:30:01.096Z,18.80
2018-04-19T19:32:28.673Z,18.80
2018-04-19T19:34:56.981Z,18.70
2018-04-19T19:37:24.478Z,18.70
2018-04-19T19:39:52.004Z,18.70
2018-04-19T19:42:20.208Z,18.60
2018-04-19T19:44:47.712Z,18.50
2018-04-19T19:47:15.959Z,18.50
2018-04-19T19:49:43.780Z,18.50
2018-04-19T19:52:11.337Z,18.50
2018-04-19T19:54:38.856Z,18.40
2018-04-19T19:57:07.380Z,18.40
2018-04-19T19:59:34.895Z,18.40
2018-04-19T20:02:03.140Z,18.40
2018-04-19T20:04:31.385Z,18.40
2018-04-19T20:06:58.879Z,18.40
2018-04-19T20:09:26.361Z,18.30
2018-04-19T20:11:54.883Z,18.30
2018-04-19T20:14:22.407Z,18.30
2018-04-19T20:16:50.652Z,18.10
2018-04-19T20:19:18.127Z,18.10
2018-04-19T20:21:45.692Z,18.10
2018-04-19T20:24:13.928Z,18.00
2018-04-19T20:26:41.404Z,17.90
2018-04-19T20:29:08.902Z,17.90
2018-04-19T20:31:36.688Z,17.70
2018-04-19T20:34:04.206Z,17.70
2018-04-19T20:36:32.487Z,17.50
2018-04-19T20:39:00.727Z,17.40
2018-04-19T20:41:28.206Z,17.40
2018-04-19T20:43:56.467Z,17.10
2018-04-19T20:46:23.940Z,17.10
2018-04-19T20:48:52.193Z,16.80
2018-04-19T20:51:19.928Z,16.80
2018-04-19T20:53:47.405Z,16.70
2018-04-19T20:56:15.143Z,16.50
2018-04-19T20:58:42.680Z,16.30
2018-04-19T21:01:10.160Z,16.20
2018-04-19T21:03:37.692Z,16.00
2018-04-19T21:06:05.197Z,15.90
2018-04-19T21:08:32.672Z,15.80
2018-04-19T21:11:00.148Z,15.70
2018-04-19T21:13:28.424Z,15.60
2018-04-19T21:15:56.661Z,15.50
2018-04-19T21:18:24.404Z,15.50
2018-04-19T21:20:51.897Z,15.40
2018-04-19T21:23:19.371Z,15.40
2018-04-19T21:25:47.616Z,15.20
2018-04-19T21:28:15.108Z,15.20
2018-04-19T21:30:43.348Z,15.20
2018-04-19T21:33:10.820Z,15.10
2018-04-19T21:35:38.315Z,15.10
2018-04-19T21:38:05.792Z,15.10
2018-04-19T21:40:33.315Z,15.10
2018-04-19T21:43:01.842Z,14.90
2018-04-19T21:45:29.315Z,14.90
2018-04-19T21:47:56.813Z,14.80
2018-04-19T21:50:25.071Z,14.70
2018-04-19T21:52:53.612Z,14.60
2018-04-19T21:55:21.129Z,14.60
2018-04-19T21:57:49.388Z,14.50
2018-04-19T22:00:16.864Z,14.50
2018-04-19T22:02:45.104Z,14.40
2018-04-19T22:05:12.600Z,14.40
2018-04-19T22:07:40.839Z,14.30
2018-04-19T22:10:08.315Z,14.20
2018-04-19T22:12:35.809Z,14.20
2018-04-19T22:15:03.589Z,14.20
2018-04-19T22:17:31.072Z,14.20
2018-04-19T22:19:58.564Z,14.10
2018-04-19T22:22:26.803Z,14.00
2018-04-19T22:24:54.277Z,14.00
2018-04-19T22:27:21.774Z,14.20
2018-04-19T22:29:49.248Z,14.20
2018-04-19T22:32:16.727Z,14.10
2018-04-19T22:34:44.224Z,14.00
2018-04-19T22:37:12.744Z,13.80
2018-04-19T22:39:40.247Z,13.80
2018-04-19T22:42:07.729Z,13.70
2018-04-19T22:44:35.972Z,13.60
2018-04-19T22:47:03.444Z,13.60
2018-04-19T22:49:31.707Z,13.50
2018-04-19T22:51:59.428Z,13.50
2018-04-19T22:54:26.908Z,13.50
2018-04-19T22:56:54.404Z,13.40
2018-04-19T22:59:22.639Z,13.20
2018-04-19T23:01:50.379Z,13.10
2018-04-19T23:04:17.876Z,13.10
2018-04-19T23:06:46.119Z,13.00
2018-04-19T23:09:13.592Z,13.00
2018-04-19T23:11:41.087Z,13.00
2018-04-19T23:14:10.028Z,12.90
2018-04-19T23:16:37.784Z,12.90
2018-04-19T23:19:05.548Z,12.80
2018-04-19T23:21:33.068Z,12.80
2018-04-19T23:24:01.307Z,12.70
2018-04-19T23:26:28.804Z,12.60
2018-04-19T23:28:56.352Z,12.60
2018-04-19T23:31:24.875Z,12.50
2018-04-19T23:33:52.791Z,12.40
2018-04-19T23:36:21.047Z,12.20
2018-04-19T23:38:48.540Z,12.20
2018-04-19T23:41:16.801Z,12.00
2018-04-19T23:43:44.275Z,12.10
2018-04-19T23:46:12.515Z,12.00
2018-04-19T23:48:40.096Z,12.00
2018-04-19T23:51:08.364Z,11.90
2018-04-19T23:53:36.184Z,11.90
2018-04-19T23:56:03.704Z,11.90
2018-04-19T23:58:31.948Z,11.80
